Site contains unofficial IBTrACS data. Visit the IBTrACS Website to access archived data.

1863 NOT_NAMED (1863046S15073)


IBTrACS version v04r00. Visit IBTrACS website for data access.
Please direct all questions to the IBTrACS Q and A forum

Storm track - Intensity - Wind Radii - Intensity Data - Source Data - All data

Summary Information

Storm ID 1863046S15073
Start Feb 14 18Z
End Feb 21 06Z
ATCF IDs
Track status Best track data.

Storm track plot

Map of storm track

Intensity plots

No Intensity information for this storm


Radial wind information

No radial wind information for this storm


Position and Intensity Table

BASIN ISO_TIME_________ NATURE LAT LON
degrees north degrees east
SI 1863-02-14 18:00:00 NR -14.90 72.50
SI 21:00:00 NR -14.97 71.58
SI 1863-02-15 00:00:00 NR -15.05 70.68
SI 03:00:00 NR -15.12 69.81
SI 06:00:00 NR -15.20 69.00
SI 09:00:00 NR -15.29 68.25
SI 12:00:00 NR -15.38 67.56
SI 15:00:00 NR -15.49 66.91
SI 18:00:00 NR -15.60 66.30
SI 21:00:00 NR -15.69 65.74
SI 1863-02-16 00:00:00 NR -15.79 65.21
SI 03:00:00 NR -15.92 64.64
SI 06:00:00 NR -16.10 64.00
SI 09:00:00 NR -16.33 63.19
SI 12:00:00 NR -16.62 62.30
SI 15:00:00 NR -16.94 61.38
SI 18:00:00 NR -17.30 60.50
SI 21:00:00 NR -17.64 59.73
SI 1863-02-17 00:00:00 NR -18.01 59.00
SI 03:00:00 NR -18.42 58.30
SI 06:00:00 NR -18.90 57.60
SI 09:00:00 NR -19.42 56.85
SI 12:00:00 NR -19.99 56.11
SI 15:00:00 NR -20.62 55.39
SI 18:00:00 NR -21.30 54.70
SI 21:00:00 NR -22.03 54.01
SI 1863-02-18 00:00:00 NR -22.81 53.37
SI 03:00:00 NR -23.58 52.79
SI 06:00:00 NR -24.30 52.30
SI 09:00:00 NR -24.93 51.92
SI 12:00:00 NR -25.52 51.64
SI 15:00:00 NR -26.07 51.41
SI 18:00:00 NR -26.60 51.20
SI 21:00:00 NR -27.18 50.91
SI 1863-02-19 00:00:00 NR -27.73 50.64
SI 03:00:00 NR -28.25 50.40
SI 06:00:00 NR -28.70 50.20
SI 09:00:00 NR -29.07 50.08
SI 12:00:00 NR -29.37 50.00
SI 15:00:00 NR -29.64 49.95
SI 18:00:00 NR -29.90 49.90
SI 21:00:00 NR -30.19 49.80
SI 1863-02-20 00:00:00 NR -30.48 49.69
SI 03:00:00 NR -30.75 49.59
SI 06:00:00 NR -31.00 49.50
SI 09:00:00 NR -31.22 49.43
SI 12:00:00 NR -31.41 49.38
SI 15:00:00 NR -31.60 49.33
SI 18:00:00 NR -31.80 49.30
SI 21:00:00 NR -32.01 49.27
SI 1863-02-21 00:00:00 NR -32.23 49.25
SI 03:00:00 NR -32.46 49.22
SI 06:00:00 NR -32.70 49.20

Source Information

Agency Information
USA
TOKYO
CMA
HKO
NEWDELHI
REUNION
BOM
NADI
WELLINGTON
DS824
TD9636 cons_worldwide_trop_cyclone_18710101-19891231-005:Line=681
TD9635
NEUMANN
MLC

All available IBTrACS Data

SEASON BASIN SUBBASIN ISO_TIME_________ NATURE LAT LON DIST2LAND LANDFALL IFLAG USA SSHS TD9636 LAT TD9636 LON TD9636 STAGE STORM SPEED STORM DIR
Year degrees north degrees east km km 1 degrees north degrees east kts degrees
1863 SI MM 1863-02-14 18:00:00 NR -14.90 72.50 1670 1577 __________O___ -1 -14.90 72.50 7 18 265
1863 SI MM 21:00:00 NR -14.97 71.58 1577 1489 __________P___ -1 -14.97 71.58 7 18 265
1863 SI MM 1863-02-15 00:00:00 NR -15.05 70.68 1489 1407 __________P___ -1 -15.05 70.68 7 17 265
1863 SI MM 03:00:00 NR -15.12 69.81 1397 1315 __________P___ -1 -15.12 69.81 7 16 265
1863 SI MM 06:00:00 NR -15.20 69.00 1315 1244 __________O___ -1 -15.20 69.00 7 15 264
1863 SI MM 09:00:00 NR -15.29 68.25 1244 1172 __________P___ -1 -15.29 68.25 7 14 262
1863 SI MM 12:00:00 NR -15.38 67.56 1172 1101 __________P___ -1 -15.38 67.56 7 13 261
1863 SI MM 15:00:00 NR -15.49 66.91 1101 1040 __________P___ -1 -15.49 66.91 7 12 260
1863 SI MM 18:00:00 NR -15.60 66.30 1040 988 __________O___ -1 -15.60 66.30 7 11 260
1863 SI MM 21:00:00 NR -15.69 65.74 979 927 __________P___ -1 -15.69 65.74 7 11 260
1863 SI MM 1863-02-16 00:00:00 NR -15.79 65.21 927 876 __________P___ -1 -15.79 65.21 7 11 258
1863 SI MM 03:00:00 NR -15.92 64.64 867 802 __________P___ -1 -15.92 64.64 7 12 255
1863 SI MM 06:00:00 NR -16.10 64.00 802 719 __________O___ -1 -16.10 64.00 7 15 253
1863 SI MM 09:00:00 NR -16.33 63.19 719 623 __________P___ -1 -16.33 63.19 7 17 252
1863 SI MM 12:00:00 NR -16.62 62.30 623 529 __________P___ -1 -16.62 62.30 7 18 251
1863 SI MM 15:00:00 NR -16.94 61.38 529 430 __________P___ -1 -16.94 61.38 7 19 248
1863 SI MM 18:00:00 NR -17.30 60.50 430 356 __________O___ -1 -17.30 60.50 7 17 246
1863 SI MM 21:00:00 NR -17.64 59.73 350 271 __________P___ -1 -17.64 59.73 7 16 244
1863 SI MM 1863-02-17 00:00:00 NR -18.01 59.00 271 200 __________P___ -1 -18.01 59.00 7 16 240
1863 SI MM 03:00:00 NR -18.42 58.30 200 134 __________P___ -1 -18.42 58.30 7 16 236
1863 SI MM 06:00:00 NR -18.90 57.60 134 98 __________O___ -1 -18.90 57.60 7 17 234
1863 SI MM 09:00:00 NR -19.42 56.85 100 99 __________P___ -1 -19.42 56.85 7 18 232
1863 SI MM 12:00:00 NR -19.99 56.11 119 44 __________P___ -1 -19.99 56.11 7 18 229
1863 SI MM 15:00:00 NR -20.62 55.39 44 23 __________P___ -1 -20.62 55.39 7 19 225
1863 SI MM 18:00:00 NR -21.30 54.70 56 56 __________O___ -1 -21.30 54.70 7 19 222
1863 SI MM 21:00:00 NR -22.03 54.01 155 155 __________P___ -1 -22.03 54.01 7 20 219
1863 SI MM 1863-02-18 00:00:00 NR -22.81 53.37 257 257 __________P___ -1 -22.81 53.37 7 19 216
1863 SI MM 03:00:00 NR -23.58 52.79 363 363 __________P___ -1 -23.58 52.79 7 18 213
1863 SI MM 06:00:00 NR -24.30 52.30 454 454 __________O___ -1 -24.30 52.30 7 16 210
1863 SI MM 09:00:00 NR -24.93 51.92 456 448 __________P___ -1 -24.93 51.92 7 14 206
1863 SI MM 12:00:00 NR -25.52 51.64 446 443 __________P___ -1 -25.52 51.64 7 12 202
1863 SI MM 15:00:00 NR -26.07 51.41 448 441 __________P___ -1 -26.07 51.41 7 12 200
1863 SI MM 18:00:00 NR -26.60 51.20 447 442 __________O___ -1 -26.60 51.20 7 12 202
1863 SI MM 21:00:00 NR -27.18 50.91 451 449 __________P___ -1 -27.18 50.91 7 12 204
1863 SI MM 1863-02-19 00:00:00 NR -27.73 50.64 460 460 __________P___ -1 -27.73 50.64 7 12 203
1863 SI MM 03:00:00 NR -28.25 50.40 483 483 __________P___ -1 -28.25 50.40 7 10 202
1863 SI MM 06:00:00 NR -28.70 50.20 511 511 __________O___ -1 -28.70 50.20 7 9 199
1863 SI MM 09:00:00 NR -29.07 50.08 541 541 __________P___ -1 -29.07 50.08 7 7 194
1863 SI MM 12:00:00 NR -29.37 50.00 564 564 __________P___ -1 -29.37 50.00 7 6 191
1863 SI MM 15:00:00 NR -29.64 49.95 583 583 __________P___ -1 -29.64 49.95 7 5 189
1863 SI MM 18:00:00 NR -29.90 49.90 607 607 __________O___ -1 -29.90 49.90 7 6 193
1863 SI MM 21:00:00 NR -30.19 49.80 631 631 __________P___ -1 -30.19 49.80 7 6 197
1863 SI MM 1863-02-20 00:00:00 NR -30.48 49.69 656 656 __________P___ -1 -30.48 49.69 7 6 198
1863 SI MM 03:00:00 NR -30.75 49.59 682 682 __________P___ -1 -30.75 49.59 7 5 198
1863 SI MM 06:00:00 NR -31.00 49.50 699 699 __________O___ -1 -31.00 49.50 7 5 196
1863 SI MM 09:00:00 NR -31.22 49.43 716 716 __________P___ -1 -31.22 49.43 7 4 194
1863 SI MM 12:00:00 NR -31.41 49.38 737 737 __________P___ -1 -31.41 49.38 7 4 192
1863 SI MM 15:00:00 NR -31.60 49.33 755 755 __________P___ -1 -31.60 49.33 7 4 191
1863 SI MM 18:00:00 NR -31.80 49.30 776 776 __________O___ -1 -31.80 49.30 7 4 189
1863 SI MM 21:00:00 NR -32.01 49.27 797 797 __________P___ -1 -32.01 49.27 7 4 186
1863 SI MM 1863-02-21 00:00:00 NR -32.23 49.25 815 815 __________P___ -1 -32.23 49.25 7 5 185
1863 SI MM 03:00:00 NR -32.46 49.22 847 847 __________P___ -1 -32.46 49.22 7 5 186
1863 SI MM 06:00:00 NR -32.70 49.20 868 __________O___ -1 -32.70 49.20 7 5 186